createdAt,value
2017-03-14T00:00:15.671Z,17.27
2017-03-14T00:01:14.904Z,16.10
2017-03-14T00:02:14.764Z,15.50
2017-03-14T00:03:14.250Z,16.60
2017-03-14T00:04:13.349Z,16.87
2017-03-14T00:05:12.581Z,16.15
2017-03-14T00:06:12.091Z,16.62
2017-03-14T00:07:11.122Z,18.07
2017-03-14T00:08:10.685Z,16.60
2017-03-14T00:09:10.260Z,14.97
2017-03-14T00:10:10.436Z,16.85
2017-03-14T00:11:11.766Z,15.35
2017-03-14T00:12:11.901Z,16.87
2017-03-14T00:13:12.522Z,14.58
2017-03-14T00:14:14.115Z,14.35
2017-03-14T00:15:14.690Z,14.95
2017-03-14T00:16:15.652Z,15.32
2017-03-14T00:17:14.906Z,17.00
2017-03-14T00:18:14.506Z,15.88
2017-03-14T00:19:13.593Z,15.88
2017-03-14T00:20:12.970Z,16.57
2017-03-14T00:21:13.411Z,16.03
2017-03-14T00:22:13.204Z,17.18
2017-03-14T00:23:13.453Z,14.83
2017-03-14T00:24:12.893Z,16.02
2017-03-14T00:25:11.888Z,15.75
2017-03-14T00:26:10.926Z,14.30
2017-03-14T00:27:10.288Z,15.78
2017-03-14T00:28:09.488Z,15.97
2017-03-14T00:29:08.736Z,16.15
2017-03-14T00:30:07.739Z,16.68
2017-03-14T00:31:07.771Z,16.87
2017-03-14T00:32:06.740Z,17.37
2017-03-14T00:33:06.103Z,15.68
2017-03-14T00:34:05.838Z,16.75
2017-03-14T00:35:05.107Z,16.33
2017-03-14T00:36:04.334Z,17.05
2017-03-14T00:37:04.102Z,18.25
2017-03-14T00:38:03.973Z,15.92
2017-03-14T00:39:03.584Z,16.33
2017-03-14T00:40:03.683Z,16.67
2017-03-14T00:41:03.546Z,17.73
2017-03-14T00:42:03.149Z,15.22
2017-03-14T00:43:02.908Z,16.35
2017-03-14T00:44:02.600Z,16.57
2017-03-14T00:45:02.471Z,16.17
2017-03-14T00:46:02.137Z,16.02
2017-03-14T00:47:01.273Z,16.20
2017-03-14T00:48:01.841Z,16.32
2017-03-14T00:49:00.932Z,17.42
2017-03-14T00:50:00.379Z,16.23
2017-03-14T00:50:59.708Z,17.27
2017-03-14T00:51:59.018Z,18.60
2017-03-14T00:52:58.574Z,18.82
2017-03-14T00:53:58.352Z,17.55
2017-03-14T00:54:57.803Z,18.90
2017-03-14T00:55:57.340Z,17.87
2017-03-14T00:56:57.000Z,17.82
2017-03-14T00:57:56.777Z,18.55
2017-03-14T00:58:56.248Z,18.30
2017-03-14T00:59:55.638Z,19.45
2017-03-14T01:00:54.307Z,21.32
2017-03-14T01:01:53.861Z,19.82
2017-03-14T01:02:53.537Z,19.90
2017-03-14T01:03:53.208Z,19.20
2017-03-14T01:04:52.732Z,19.20
2017-03-14T01:05:52.246Z,21.45
2017-03-14T01:06:51.605Z,20.60
2017-03-14T01:07:51.453Z,19.68
2017-03-14T01:08:50.337Z,19.45
2017-03-14T01:09:50.068Z,21.22
2017-03-14T01:10:49.300Z,20.97
2017-03-14T01:11:49.093Z,20.78
2017-03-14T01:12:48.684Z,19.57
2017-03-14T01:13:48.301Z,20.80
2017-03-14T01:14:47.225Z,20.45
2017-03-14T01:15:46.283Z,20.80
2017-03-14T01:16:46.048Z,22.07
2017-03-14T01:17:44.857Z,21.67
2017-03-14T01:18:45.481Z,22.47
2017-03-14T01:19:45.391Z,22.07
2017-03-14T01:20:44.601Z,22.08
2017-03-14T01:21:43.928Z,21.32
2017-03-14T01:22:42.820Z,21.05
2017-03-14T01:23:42.791Z,20.85
2017-03-14T01:24:42.626Z,23.02
2017-03-14T01:25:42.004Z,21.15
2017-03-14T01:26:42.032Z,20.93
2017-03-14T01:27:41.568Z,22.07
2017-03-14T01:28:40.985Z,20.58
2017-03-14T01:29:40.644Z,21.53
2017-03-14T01:30:40.104Z,20.03
2017-03-14T01:31:39.781Z,19.78
2017-03-14T01:32:38.996Z,20.70
2017-03-14T01:33:38.481Z,19.82
2017-03-14T01:34:37.886Z,20.78
2017-03-14T01:35:37.585Z,21.72
2017-03-14T01:36:36.981Z,19.97
2017-03-14T01:37:36.629Z,22.80
2017-03-14T01:38:36.476Z,20.75
2017-03-14T01:39:36.333Z,21.12
2017-03-14T01:40:35.526Z,21.73
2017-03-14T01:41:35.246Z,21.87
2017-03-14T01:42:34.824Z,20.25
2017-03-14T01:43:34.429Z,22.23
2017-03-14T01:44:33.680Z,22.63
2017-03-14T01:45:33.410Z,22.03
2017-03-14T01:46:32.967Z,21.85
2017-03-14T01:47:32.388Z,23.57
2017-03-14T01:48:32.008Z,22.28
2017-03-14T01:49:31.943Z,21.73
2017-03-14T01:50:30.998Z,21.20
2017-03-14T01:51:30.700Z,22.50
2017-03-14T01:52:29.932Z,22.10
2017-03-14T01:53:29.505Z,23.58
2017-03-14T01:54:29.233Z,21.63
2017-03-14T01:55:28.664Z,21.78
2017-03-14T01:56:27.745Z,20.70
2017-03-14T01:57:27.454Z,23.07
2017-03-14T01:58:27.007Z,23.05
2017-03-14T01:59:26.209Z,21.60
2017-03-14T02:00:25.948Z,21.30
2017-03-14T02:01:25.244Z,22.17
2017-03-14T02:02:24.360Z,21.58
2017-03-14T02:03:25.077Z,21.60
2017-03-14T02:04:24.640Z,21.05
2017-03-14T02:05:23.806Z,22.83
2017-03-14T02:06:23.449Z,23.35
2017-03-14T02:07:24.268Z,22.82
2017-03-14T02:08:23.999Z,21.37
2017-03-14T02:09:24.773Z,21.43
2017-03-14T02:10:24.741Z,21.92
2017-03-14T02:11:23.768Z,21.70
2017-03-14T02:12:23.284Z,21.55
2017-03-14T02:13:23.069Z,21.97
2017-03-14T02:14:23.529Z,24.95
2017-03-14T02:15:23.181Z,22.27
2017-03-14T02:16:22.822Z,21.18
2017-03-14T02:17:22.321Z,22.30
2017-03-14T02:18:21.747Z,22.53
2017-03-14T02:19:21.181Z,22.77
2017-03-14T02:20:20.908Z,22.90
2017-03-14T02:21:20.508Z,23.70
2017-03-14T02:22:20.059Z,24.17
2017-03-14T02:23:19.583Z,26.18
2017-03-14T02:24:19.257Z,24.10
2017-03-14T02:25:18.864Z,25.72
2017-03-14T02:26:17.827Z,25.17
2017-03-14T02:27:17.455Z,25.42
2017-03-14T02:28:17.429Z,26.68
2017-03-14T02:29:16.929Z,26.57
2017-03-14T02:30:16.000Z,25.17
2017-03-14T02:31:14.979Z,24.48
2017-03-14T02:32:15.375Z,24.25
2017-03-14T02:33:17.124Z,25.13
2017-03-14T02:34:16.821Z,25.45
2017-03-14T02:35:16.569Z,21.05
2017-03-14T02:36:16.271Z,24.32
2017-03-14T02:37:15.693Z,22.13
2017-03-14T02:38:15.432Z,21.70
2017-03-14T02:39:15.236Z,22.52
2017-03-14T02:40:14.944Z,23.08
2017-03-14T02:41:14.300Z,23.07
2017-03-14T02:42:13.869Z,26.20
2017-03-14T02:43:12.877Z,22.98
2017-03-14T02:44:13.206Z,21.88
2017-03-14T02:45:11.813Z,21.67
2017-03-14T02:46:11.284Z,20.85
2017-03-14T02:47:10.703Z,21.78
2017-03-14T02:48:10.045Z,21.07
2017-03-14T02:49:09.917Z,21.92
2017-03-14T02:50:08.885Z,21.57
2017-03-14T02:51:08.572Z,21.27
2017-03-14T02:52:08.472Z,21.78
2017-03-14T02:53:08.186Z,22.48
2017-03-14T02:54:07.708Z,23.13
2017-03-14T02:55:06.465Z,22.60
2017-03-14T02:56:06.016Z,23.37
2017-03-14T02:57:05.650Z,23.25
2017-03-14T02:58:05.048Z,20.53
2017-03-14T02:59:05.404Z,21.20
2017-03-14T03:00:05.167Z,21.28
2017-03-14T03:01:05.221Z,21.27
2017-03-14T03:02:04.909Z,20.72
2017-03-14T03:03:04.396Z,22.07
2017-03-14T03:04:03.884Z,21.78
2017-03-14T03:05:03.505Z,19.88
2017-03-14T03:06:02.589Z,20.30
2017-03-14T03:07:01.783Z,24.32
2017-03-14T03:08:01.424Z,20.40
2017-03-14T03:09:00.812Z,20.27
2017-03-14T03:10:00.391Z,21.57
2017-03-14T03:11:00.256Z,20.90
2017-03-14T03:11:59.360Z,19.75
2017-03-14T03:12:59.533Z,19.65
2017-03-14T03:13:58.888Z,20.70
2017-03-14T03:14:58.572Z,19.75
2017-03-14T03:15:59.795Z,21.10
2017-03-14T03:16:59.469Z,19.77
2017-03-14T03:17:59.412Z,21.10
2017-03-14T03:18:58.851Z,21.37
2017-03-14T03:19:58.784Z,22.55
2017-03-14T03:20:58.591Z,22.00
2017-03-14T03:21:57.709Z,21.95
2017-03-14T03:22:57.657Z,18.98
2017-03-14T03:23:56.623Z,21.72
2017-03-14T03:24:56.386Z,21.95
2017-03-14T03:25:56.124Z,21.88
2017-03-14T03:26:55.084Z,20.73
2017-03-14T03:27:54.852Z,21.00
2017-03-14T03:28:54.379Z,19.25
2017-03-14T03:29:53.543Z,21.10
2017-03-14T03:30:52.751Z,19.97
2017-03-14T03:31:52.396Z,21.40
2017-03-14T03:32:51.799Z,19.32
2017-03-14T03:33:51.289Z,21.40
2017-03-14T03:34:50.467Z,19.63
2017-03-14T03:35:50.273Z,19.60
2017-03-14T03:36:49.794Z,19.58
2017-03-14T03:37:49.530Z,21.05
2017-03-14T03:38:49.277Z,20.25
2017-03-14T03:39:48.841Z,20.97
2017-03-14T03:40:48.480Z,19.23
2017-03-14T03:41:47.905Z,18.85
2017-03-14T03:42:47.269Z,20.00
2017-03-14T03:43:46.803Z,20.23
2017-03-14T03:44:46.253Z,20.78
2017-03-14T03:45:47.293Z,20.03
2017-03-14T03:46:46.746Z,21.23
2017-03-14T03:47:46.281Z,18.63
2017-03-14T03:48:45.857Z,19.53
2017-03-14T03:49:45.371Z,18.97
2017-03-14T03:50:45.204Z,19.50
2017-03-14T03:51:44.851Z,20.23
2017-03-14T03:52:44.861Z,18.97
2017-03-14T03:53:44.118Z,20.15
2017-03-14T03:54:43.705Z,20.55
2017-03-14T03:55:44.085Z,20.30
2017-03-14T03:56:43.732Z,20.85
2017-03-14T03:57:43.312Z,19.72
2017-03-14T03:58:42.370Z,20.45
2017-03-14T03:59:42.357Z,20.62
2017-03-14T04:00:42.687Z,21.15
2017-03-14T04:01:41.517Z,20.73
2017-03-14T04:02:41.094Z,20.52
2017-03-14T04:03:40.611Z,19.53
2017-03-14T04:04:40.124Z,21.28
2017-03-14T04:05:39.912Z,21.27
2017-03-14T04:06:39.644Z,20.35
2017-03-14T04:07:39.581Z,21.97
2017-03-14T04:08:39.072Z,20.30
2017-03-14T04:09:38.972Z,21.47
2017-03-14T04:10:38.041Z,21.08
2017-03-14T04:11:37.601Z,21.55
2017-03-14T04:12:39.523Z,21.57
2017-03-14T04:13:40.649Z,21.05
2017-03-14T04:14:40.540Z,19.93
2017-03-14T04:15:40.852Z,20.68
2017-03-14T04:16:40.121Z,22.38
2017-03-14T04:17:39.911Z,21.37
2017-03-14T04:18:38.592Z,20.35
2017-03-14T04:19:38.151Z,20.33
2017-03-14T04:20:37.931Z,20.60
2017-03-14T04:21:37.944Z,20.98
2017-03-14T04:22:37.631Z,20.48
2017-03-14T04:23:37.268Z,20.78
2017-03-14T04:24:36.800Z,21.83
2017-03-14T04:25:36.548Z,20.68
2017-03-14T04:26:35.924Z,19.80
2017-03-14T04:27:36.428Z,20.73
2017-03-14T04:28:35.882Z,20.37
2017-03-14T04:29:35.523Z,20.17
2017-03-14T04:30:35.573Z,20.85
2017-03-14T04:31:35.473Z,21.38
2017-03-14T04:32:35.863Z,21.60
2017-03-14T04:33:35.364Z,21.32
2017-03-14T04:34:35.080Z,21.10
2017-03-14T04:35:34.630Z,21.65
2017-03-14T04:36:33.925Z,23.30
2017-03-14T04:37:33.349Z,23.50
2017-03-14T04:38:33.337Z,23.70
2017-03-14T04:39:32.667Z,23.55
2017-03-14T04:40:32.492Z,22.83
2017-03-14T04:41:31.625Z,23.20
2017-03-14T04:42:30.647Z,23.57
2017-03-14T04:43:30.302Z,22.78
2017-03-14T04:44:30.337Z,24.23
2017-03-14T04:45:30.895Z,22.80
2017-03-14T04:46:30.800Z,23.45
2017-03-14T04:47:30.053Z,22.42
2017-03-14T04:48:29.741Z,22.37
2017-03-14T04:49:29.527Z,23.45
2017-03-14T04:50:29.243Z,23.85
2017-03-14T04:51:28.376Z,24.50
2017-03-14T04:52:28.013Z,24.28
2017-03-14T04:53:27.306Z,25.02
2017-03-14T04:54:26.360Z,25.98
2017-03-14T04:55:25.933Z,26.13
2017-03-14T04:56:25.696Z,24.45
2017-03-14T04:57:26.566Z,25.75
2017-03-14T04:58:26.375Z,24.70
2017-03-14T04:59:26.400Z,26.32
2017-03-14T05:00:27.193Z,24.53
2017-03-14T05:01:26.773Z,24.78
2017-03-14T05:02:26.380Z,25.82
2017-03-14T05:03:25.848Z,28.15
2017-03-14T05:04:25.404Z,26.57
2017-03-14T05:05:25.024Z,26.67
2017-03-14T05:06:24.780Z,26.23
2017-03-14T05:07:23.872Z,26.88
2017-03-14T05:08:23.756Z,27.02
2017-03-14T05:09:23.065Z,25.27
2017-03-14T05:10:22.699Z,27.53
2017-03-14T05:11:22.287Z,26.77
2017-03-14T05:12:21.676Z,26.60
2017-03-14T05:13:21.322Z,25.28
2017-03-14T05:14:21.586Z,27.43
2017-03-14T05:15:22.675Z,28.50
2017-03-14T05:16:22.015Z,28.10
2017-03-14T05:17:20.793Z,25.48
2017-03-14T05:18:19.894Z,25.72
2017-03-14T05:19:20.539Z,23.88
2017-03-14T05:20:21.061Z,24.33
2017-03-14T05:21:20.519Z,24.78
2017-03-14T05:22:19.564Z,24.92
2017-03-14T05:23:19.261Z,18.02
2017-03-14T05:24:18.560Z,23.18
2017-03-14T05:25:18.097Z,24.22
2017-03-14T05:26:18.672Z,25.10
2017-03-14T05:27:19.648Z,23.45
2017-03-14T05:28:20.746Z,23.08
2017-03-14T05:29:21.594Z,23.97
2017-03-14T05:30:21.145Z,25.75
2017-03-14T05:31:20.980Z,25.18
2017-03-14T05:32:20.685Z,21.08
2017-03-14T05:33:19.932Z,23.45
2017-03-14T05:34:19.396Z,23.02
2017-03-14T05:35:19.259Z,21.40
2017-03-14T05:36:19.137Z,22.02
2017-03-14T05:37:18.587Z,21.15
2017-03-14T05:38:20.427Z,21.27
2017-03-14T05:39:19.947Z,22.60
2017-03-14T05:40:19.438Z,21.55
2017-03-14T05:41:18.869Z,21.67
2017-03-14T05:42:18.824Z,20.32
2017-03-14T05:43:17.800Z,20.28
2017-03-14T05:44:17.614Z,20.05
2017-03-14T05:45:16.805Z,19.90
2017-03-14T05:46:16.600Z,20.38
2017-03-14T05:47:15.645Z,21.02
2017-03-14T05:48:15.068Z,20.58
2017-03-14T05:49:14.629Z,20.55
2017-03-14T05:50:14.287Z,20.65
2017-03-14T05:51:13.553Z,20.37
2017-03-14T05:52:13.315Z,21.12
2017-03-14T05:53:12.782Z,21.75
2017-03-14T05:54:12.508Z,21.58
2017-03-14T05:55:11.241Z,20.83
2017-03-14T05:56:10.904Z,20.53
2017-03-14T05:57:10.581Z,20.50
2017-03-14T05:58:10.328Z,20.05
2017-03-14T05:59:09.540Z,20.57
2017-03-14T06:00:08.571Z,19.82
2017-03-14T06:01:07.575Z,20.33
2017-03-14T06:02:07.068Z,19.35
2017-03-14T06:03:06.277Z,19.80
2017-03-14T06:04:05.716Z,20.72
2017-03-14T06:05:05.280Z,21.62
2017-03-14T06:06:04.554Z,21.78
2017-03-14T06:07:03.739Z,20.75
2017-03-14T06:08:03.288Z,20.57
2017-03-14T06:09:02.593Z,21.03
2017-03-14T06:10:01.888Z,22.92
2017-03-14T06:11:00.764Z,20.28
2017-03-14T06:12:00.034Z,19.55
2017-03-14T06:12:59.529Z,20.97
2017-03-14T06:13:58.889Z,21.00
2017-03-14T06:14:58.048Z,22.17
2017-03-14T06:15:57.692Z,19.85
2017-03-14T06:16:56.799Z,19.55
2017-03-14T06:17:56.315Z,21.32
2017-03-14T06:18:55.949Z,21.20
2017-03-14T06:19:55.604Z,20.47
2017-03-14T06:20:55.193Z,20.08
2017-03-14T06:21:54.909Z,21.17
2017-03-14T06:22:53.531Z,20.42
2017-03-14T06:23:53.321Z,20.98
2017-03-14T06:24:54.801Z,19.78
2017-03-14T06:25:54.413Z,20.12
2017-03-14T06:26:55.004Z,21.27
2017-03-14T06:27:55.804Z,21.15
2017-03-14T06:28:55.481Z,22.22
2017-03-14T06:29:54.717Z,21.53
2017-03-14T06:30:54.161Z,21.45
2017-03-14T06:31:53.424Z,21.22
2017-03-14T06:32:52.684Z,20.17
2017-03-14T06:33:52.264Z,20.43
2017-03-14T06:34:52.000Z,20.20
2017-03-14T06:35:51.439Z,22.77
2017-03-14T06:36:52.149Z,22.60
2017-03-14T06:37:51.636Z,20.87
2017-03-14T06:38:51.352Z,21.75
2017-03-14T06:39:51.659Z,21.60
2017-03-14T06:40:51.305Z,20.62
2017-03-14T06:41:50.568Z,21.28
2017-03-14T06:42:49.875Z,20.75
2017-03-14T06:43:49.676Z,22.90
2017-03-14T06:44:49.000Z,18.67
2017-03-14T06:45:49.451Z,20.35
2017-03-14T06:46:49.198Z,20.28
2017-03-14T06:47:48.820Z,21.78
2017-03-14T06:48:48.297Z,20.55
2017-03-14T06:49:48.133Z,19.68
2017-03-14T06:50:47.592Z,19.90
2017-03-14T06:51:46.688Z,20.37
2017-03-14T06:52:45.938Z,21.90
2017-03-14T06:53:45.380Z,19.82
2017-03-14T06:54:45.424Z,20.58
2017-03-14T06:55:45.033Z,21.23
2017-03-14T06:56:44.835Z,19.85
2017-03-14T06:57:44.580Z,20.17
2017-03-14T06:58:44.000Z,21.07
2017-03-14T06:59:43.136Z,21.92
2017-03-14T07:00:42.594Z,21.27
2017-03-14T07:01:41.760Z,20.87
2017-03-14T07:02:41.560Z,22.25
2017-03-14T07:03:42.479Z,20.52
2017-03-14T07:04:42.893Z,20.08
2017-03-14T07:05:42.695Z,20.15
2017-03-14T07:06:42.467Z,21.65
2017-03-14T07:07:42.092Z,21.93
2017-03-14T07:08:43.019Z,21.05
2017-03-14T07:09:42.243Z,21.10
2017-03-14T07:10:41.476Z,19.75
2017-03-14T07:11:41.020Z,21.10
2017-03-14T07:12:40.565Z,20.72
2017-03-14T07:13:39.896Z,21.30
2017-03-14T07:14:39.495Z,22.53
2017-03-14T07:15:38.771Z,21.57
2017-03-14T07:16:39.035Z,22.92
2017-03-14T07:17:38.324Z,20.65
2017-03-14T07:18:37.501Z,20.07
2017-03-14T07:19:37.228Z,20.98
2017-03-14T07:20:36.762Z,22.27
2017-03-14T07:21:35.793Z,21.08
2017-03-14T07:22:35.412Z,22.80
2017-03-14T07:23:35.251Z,22.38
2017-03-14T07:24:36.461Z,21.70
2017-03-14T07:25:36.152Z,21.10
2017-03-14T07:26:35.373Z,22.02
2017-03-14T07:27:35.579Z,20.53
2017-03-14T07:28:35.143Z,20.28
2017-03-14T07:29:34.890Z,19.15
2017-03-14T07:30:34.628Z,21.35
2017-03-14T07:31:34.205Z,22.18
2017-03-14T07:32:33.776Z,20.03
2017-03-14T07:33:32.857Z,22.80
2017-03-14T07:34:33.021Z,19.88
2017-03-14T07:35:33.436Z,20.87
2017-03-14T07:36:33.241Z,21.98
2017-03-14T07:37:32.848Z,21.33
2017-03-14T07:38:32.334Z,19.32
2017-03-14T07:39:32.249Z,18.88
2017-03-14T07:40:31.889Z,19.85
2017-03-14T07:41:31.617Z,21.72
2017-03-14T07:42:31.487Z,20.93
2017-03-14T07:43:30.671Z,22.58
2017-03-14T07:44:30.248Z,20.95
2017-03-14T07:45:30.217Z,21.97
2017-03-14T07:46:29.984Z,20.60
2017-03-14T07:47:29.621Z,21.48
2017-03-14T07:48:29.321Z,22.87
2017-03-14T07:49:27.981Z,23.47
2017-03-14T07:50:27.605Z,22.37
2017-03-14T07:51:27.272Z,22.40
2017-03-14T07:52:27.872Z,19.90
2017-03-14T07:53:27.852Z,22.73
2017-03-14T07:54:27.696Z,21.67
2017-03-14T07:55:28.124Z,22.22
2017-03-14T07:56:28.072Z,19.93
2017-03-14T07:57:27.392Z,22.22
2017-03-14T07:58:27.545Z,20.93
2017-03-14T07:59:26.844Z,22.47
2017-03-14T08:00:26.628Z,21.30
2017-03-14T08:01:26.070Z,23.70
2017-03-14T08:02:34.984Z,21.02
2017-03-14T08:03:33.956Z,22.00
2017-03-14T08:04:33.420Z,20.77
2017-03-14T08:05:33.661Z,21.43
2017-03-14T08:06:33.657Z,24.72
2017-03-14T08:07:34.532Z,25.53
2017-03-14T08:08:34.104Z,23.22
2017-03-14T08:09:33.720Z,22.72
2017-03-14T08:10:33.036Z,22.47
2017-03-14T08:11:33.177Z,23.37
2017-03-14T08:12:33.056Z,22.57
2017-03-14T08:13:32.884Z,23.08
2017-03-14T08:14:32.980Z,22.90
2017-03-14T08:15:32.312Z,23.35
2017-03-14T08:16:31.412Z,25.28
2017-03-14T08:17:31.170Z,22.83
2017-03-14T08:18:30.792Z,23.50
2017-03-14T08:19:30.569Z,25.60
2017-03-14T08:20:30.211Z,24.67
2017-03-14T08:21:31.136Z,23.38
2017-03-14T08:22:30.744Z,23.73
2017-03-14T08:23:30.204Z,21.60
2017-03-14T08:24:29.974Z,23.08
2017-03-14T08:25:29.755Z,22.02
2017-03-14T08:26:29.101Z,25.98
2017-03-14T08:27:28.954Z,24.25
2017-03-14T08:28:28.631Z,25.42
2017-03-14T08:29:28.364Z,25.42
2017-03-14T08:30:27.798Z,23.48
2017-03-14T08:31:27.609Z,26.02
2017-03-14T08:32:27.220Z,24.90
2017-03-14T08:33:26.628Z,24.35
2017-03-14T08:34:26.880Z,23.00
2017-03-14T08:35:27.246Z,24.05
2017-03-14T08:36:28.812Z,22.52
2017-03-14T08:37:28.862Z,23.83
2017-03-14T08:38:28.541Z,24.03
2017-03-14T08:39:27.929Z,22.95
2017-03-14T08:40:27.464Z,23.47
2017-03-14T08:41:26.884Z,23.20
2017-03-14T08:42:26.097Z,23.38
2017-03-14T08:43:25.780Z,25.00
2017-03-14T08:44:25.307Z,24.60
2017-03-14T08:45:24.473Z,24.58
2017-03-14T08:46:24.044Z,24.17
2017-03-14T08:47:24.003Z,24.42
2017-03-14T08:48:24.164Z,25.97
2017-03-14T08:49:23.955Z,23.10
2017-03-14T08:50:24.565Z,24.38
2017-03-14T08:51:24.011Z,24.17
2017-03-14T08:52:24.464Z,25.03
2017-03-14T08:53:23.584Z,27.20
2017-03-14T08:54:23.735Z,24.33
2017-03-14T08:55:24.284Z,23.27
2017-03-14T08:56:23.784Z,23.75
2017-03-14T08:57:23.517Z,23.60
2017-03-14T08:58:23.200Z,23.58
2017-03-14T08:59:23.268Z,23.68
2017-03-14T09:00:22.815Z,24.48
2017-03-14T09:01:22.657Z,24.85
2017-03-14T09:02:22.147Z,24.78
2017-03-14T09:03:21.628Z,25.45
2017-03-14T09:04:22.081Z,25.63
2017-03-14T09:05:21.699Z,23.92
2017-03-14T09:06:21.131Z,25.55
2017-03-14T09:07:20.113Z,24.75
2017-03-14T09:08:19.791Z,25.22
2017-03-14T09:09:19.109Z,23.87
2017-03-14T09:10:18.230Z,25.62
2017-03-14T09:11:17.886Z,26.25
2017-03-14T09:12:17.343Z,24.67
2017-03-14T09:13:17.030Z,24.97
2017-03-14T09:14:16.001Z,25.28
2017-03-14T09:15:15.181Z,26.07
2017-03-14T09:16:14.328Z,26.68
2017-03-14T09:17:13.907Z,24.57
2017-03-14T09:18:13.308Z,27.00
2017-03-14T09:19:13.347Z,25.28
2017-03-14T09:20:12.376Z,25.48
2017-03-14T09:21:12.327Z,26.03
2017-03-14T09:22:11.912Z,27.10
2017-03-14T09:23:11.624Z,28.55
2017-03-14T09:24:11.207Z,30.92
2017-03-14T09:25:09.998Z,29.25
2017-03-14T09:26:09.773Z,30.53
2017-03-14T09:27:08.775Z,32.08
2017-03-14T09:28:07.896Z,29.85
2017-03-14T09:29:07.891Z,31.33
2017-03-14T09:30:07.074Z,29.75
2017-03-14T09:31:06.617Z,29.90
2017-03-14T09:32:06.312Z,32.30
2017-03-14T09:33:06.979Z,29.75
2017-03-14T09:34:07.060Z,33.00
2017-03-14T09:35:06.040Z,32.35
2017-03-14T09:36:05.612Z,33.90
2017-03-14T09:37:04.632Z,33.22
2017-03-14T09:38:04.633Z,32.83
2017-03-14T09:39:04.315Z,32.15
2017-03-14T09:40:03.517Z,33.40
2017-03-14T09:41:03.102Z,31.58
2017-03-14T09:42:02.922Z,31.87
2017-03-14T09:43:02.687Z,32.98
2017-03-14T09:44:01.899Z,34.65
2017-03-14T09:45:01.535Z,33.43
2017-03-14T09:46:00.898Z,33.03
2017-03-14T09:46:59.526Z,34.73
2017-03-14T09:47:58.812Z,33.23
2017-03-14T09:48:59.033Z,32.53
2017-03-14T09:49:58.077Z,34.85
2017-03-14T09:51:00.244Z,35.70
2017-03-14T09:51:59.807Z,36.35
2017-03-14T09:52:59.131Z,36.07
2017-03-14T09:53:58.531Z,34.73
2017-03-14T09:54:57.900Z,36.28
2017-03-14T09:55:57.106Z,36.35
2017-03-14T09:56:56.545Z,36.52
2017-03-14T09:57:56.412Z,37.13
2017-03-14T09:58:55.413Z,36.38
2017-03-14T09:59:54.790Z,36.90
2017-03-14T10:00:53.967Z,37.50
2017-03-14T10:01:54.676Z,35.38
2017-03-14T10:02:54.907Z,37.03
2017-03-14T10:03:54.992Z,38.25
2017-03-14T10:04:54.355Z,36.93
2017-03-14T10:05:54.067Z,36.18
2017-03-14T10:06:54.080Z,37.73
2017-03-14T10:07:53.224Z,34.88
2017-03-14T10:08:52.983Z,37.63
2017-03-14T10:09:52.093Z,38.03
2017-03-14T10:10:51.120Z,38.07
2017-03-14T10:11:50.875Z,33.87
2017-03-14T10:12:50.134Z,37.97
2017-03-14T10:13:49.753Z,39.30
2017-03-14T10:14:48.536Z,36.55
2017-03-14T10:15:48.119Z,38.08
2017-03-14T10:16:48.075Z,36.05
2017-03-14T10:17:47.631Z,38.68
2017-03-14T10:18:47.628Z,35.53
2017-03-14T10:19:48.877Z,37.82
2017-03-14T10:20:48.412Z,37.77
2017-03-14T10:21:48.362Z,36.32
2017-03-14T10:22:48.028Z,39.20
2017-03-14T10:23:50.217Z,38.08
2017-03-14T10:24:49.555Z,36.73
2017-03-14T10:25:49.104Z,36.90
2017-03-14T10:26:48.257Z,39.23
2017-03-14T10:27:48.175Z,37.32
2017-03-14T10:28:47.731Z,37.15
2017-03-14T10:29:46.859Z,41.65
2017-03-14T10:30:47.588Z,37.38
2017-03-14T10:31:46.618Z,37.97
2017-03-14T10:32:46.595Z,39.38
2017-03-14T10:33:46.135Z,40.68
2017-03-14T10:34:46.985Z,40.03
2017-03-14T10:35:46.850Z,40.45
2017-03-14T10:36:46.536Z,36.87
2017-03-14T10:37:46.433Z,37.43
2017-03-14T10:38:46.216Z,38.02
2017-03-14T10:39:45.884Z,38.42
2017-03-14T10:40:45.420Z,41.77
2017-03-14T10:41:44.939Z,42.52
2017-03-14T10:42:44.171Z,40.85
2017-03-14T10:43:43.517Z,41.07
2017-03-14T10:44:42.610Z,43.58
2017-03-14T10:45:42.386Z,38.82
2017-03-14T10:46:42.379Z,40.82
2017-03-14T10:47:41.663Z,40.32
2017-03-14T10:48:41.250Z,40.15
2017-03-14T10:49:40.355Z,42.50
2017-03-14T10:50:40.106Z,39.38
2017-03-14T10:51:39.582Z,42.73
2017-03-14T10:52:38.991Z,39.55
2017-03-14T10:53:39.110Z,39.65
2017-03-14T10:54:38.623Z,39.33
2017-03-14T10:55:38.276Z,39.23
2017-03-14T10:56:37.223Z,41.35
2017-03-14T10:57:37.426Z,36.97
2017-03-14T10:58:37.076Z,39.45
2017-03-14T10:59:36.311Z,39.03
2017-03-14T11:00:36.981Z,41.70
2017-03-14T11:01:36.794Z,37.43
2017-03-14T11:02:36.969Z,37.70
2017-03-14T11:03:36.062Z,37.70
2017-03-14T11:04:35.587Z,38.40
2017-03-14T11:05:35.106Z,37.57
2017-03-14T11:06:34.536Z,36.53
2017-03-14T11:07:34.016Z,41.22
2017-03-14T11:08:34.855Z,40.65
2017-03-14T11:09:35.452Z,38.37
2017-03-14T11:10:35.021Z,39.12
2017-03-14T11:11:34.904Z,38.70
2017-03-14T11:12:34.128Z,39.98
2017-03-14T11:13:33.700Z,37.90
2017-03-14T11:14:33.185Z,38.45
2017-03-14T11:15:34.824Z,39.22
2017-03-14T11:16:35.339Z,38.32
2017-03-14T11:17:35.205Z,40.83
2017-03-14T11:18:34.691Z,37.10
2017-03-14T11:19:34.162Z,39.52
2017-03-14T11:20:33.172Z,39.58
2017-03-14T11:21:32.231Z,39.45
2017-03-14T11:22:33.788Z,39.75
2017-03-14T11:23:32.921Z,37.58
2017-03-14T11:24:31.935Z,38.92
2017-03-14T11:25:31.481Z,40.08
2017-03-14T11:26:31.164Z,39.15
2017-03-14T11:27:31.652Z,38.18
2017-03-14T11:28:31.097Z,40.07
2017-03-14T11:29:33.283Z,40.72
2017-03-14T11:30:32.716Z,39.53
2017-03-14T11:31:33.540Z,36.97
2017-03-14T11:32:33.178Z,36.85
2017-03-14T11:33:32.554Z,39.07
2017-03-14T11:34:32.307Z,38.67
2017-03-14T11:35:31.754Z,38.82
2017-03-14T11:36:31.575Z,37.78
2017-03-14T11:37:30.930Z,37.70
2017-03-14T11:38:30.852Z,39.65
2017-03-14T11:39:31.003Z,41.07
2017-03-14T11:40:30.810Z,37.42
2017-03-14T11:41:29.984Z,38.12
2017-03-14T11:42:29.609Z,38.38
2017-03-14T11:43:29.031Z,36.95
2017-03-14T11:44:30.049Z,39.50
2017-03-14T12:05:03.532Z,38.88
2017-03-14T12:06:45.181Z,37.22
2017-03-14T12:07:45.060Z,35.58
2017-03-14T12:08:44.631Z,36.33
2017-03-14T12:09:43.595Z,37.70
2017-03-14T12:10:42.992Z,38.20
2017-03-14T12:11:42.856Z,35.82
2017-03-14T12:12:42.526Z,34.30
2017-03-14T12:13:43.120Z,35.25
2017-03-14T12:14:43.295Z,36.17
2017-03-14T12:15:42.920Z,34.58
2017-03-14T12:16:42.808Z,36.53
2017-03-14T12:17:43.611Z,35.88
2017-03-14T12:18:43.016Z,33.67
2017-03-14T12:19:43.028Z,30.23
2017-03-14T12:20:42.878Z,30.20
2017-03-14T12:21:43.016Z,30.07
2017-03-14T12:22:42.979Z,30.48
2017-03-14T12:23:44.037Z,23.90
2017-03-14T12:24:44.370Z,25.67
2017-03-14T12:25:43.814Z,28.92
2017-03-14T12:26:43.620Z,28.17
2017-03-14T12:28:37.703Z,30.12
2017-03-14T12:29:37.236Z,29.57
2017-03-14T12:30:36.784Z,32.83
2017-03-14T12:31:37.861Z,31.83
2017-03-14T12:32:37.839Z,32.00
2017-03-14T12:33:37.850Z,32.48
2017-03-14T12:34:37.827Z,30.57
2017-03-14T12:35:36.601Z,28.92
2017-03-14T12:36:36.254Z,30.15
2017-03-14T12:37:35.445Z,27.75
2017-03-14T12:38:35.295Z,26.85
2017-03-14T12:39:35.069Z,27.92
2017-03-14T12:40:34.095Z,28.28
2017-03-14T12:41:32.755Z,28.56
2017-03-14T14:17:01.156Z,28.20
2017-03-14T14:18:00.120Z,27.42
2017-03-14T14:18:59.859Z,29.47
2017-03-14T14:19:59.899Z,27.48
2017-03-14T14:20:58.925Z,27.27
2017-03-14T14:21:58.127Z,25.53
2017-03-14T14:22:57.868Z,25.42
2017-03-14T14:23:56.610Z,27.00
2017-03-14T14:24:55.892Z,27.77
2017-03-14T14:25:55.904Z,26.52
2017-03-14T14:26:54.971Z,28.93
2017-03-14T14:27:54.620Z,27.22
2017-03-14T14:28:53.930Z,28.68
2017-03-14T14:29:53.134Z,26.57
2017-03-14T14:30:52.656Z,27.67
2017-03-14T14:31:51.807Z,26.52
2017-03-14T14:32:51.593Z,26.38
2017-03-14T14:33:50.723Z,27.28
2017-03-14T14:34:50.207Z,27.43
2017-03-14T14:35:50.028Z,26.42
2017-03-14T14:36:48.776Z,28.30
2017-03-14T14:37:48.452Z,28.30
2017-03-14T14:38:48.936Z,28.58
2017-03-14T14:39:48.792Z,27.02
2017-03-14T14:40:48.583Z,26.48
2017-03-14T14:41:48.084Z,27.25
2017-03-14T14:42:47.755Z,26.05
2017-03-14T14:43:47.122Z,27.87